createdAt,value
2023-01-29T00:02:07.035Z,97.40
2023-01-29T00:04:34.205Z,97.50
2023-01-29T00:07:01.040Z,97.90
2023-01-29T00:09:28.379Z,98.10
2023-01-29T00:11:55.153Z,98.60
2023-01-29T00:14:22.060Z,98.60
2023-01-29T00:16:48.937Z,98.50
2023-01-29T00:19:15.657Z,99.10
2023-01-29T00:21:42.427Z,99.50
2023-01-29T00:24:09.290Z,99.20
2023-01-29T00:26:37.543Z,99.30
2023-01-29T00:29:04.577Z,99.80
2023-01-29T00:31:31.465Z,99.90
2023-01-29T00:33:58.421Z,99.90
2023-01-29T00:36:25.566Z,99.70
2023-01-29T00:39:00.667Z,99.70
2023-01-29T00:41:47.502Z,99.90
2023-01-29T00:44:33.037Z,98.70
2023-01-29T00:46:59.925Z,98.10
2023-01-29T00:49:26.676Z,97.20
2023-01-29T00:52:16.363Z,97.60
2023-01-29T00:54:43.130Z,97.80
2023-01-29T00:57:09.949Z,98.10
2023-01-29T00:59:36.770Z,96.90
2023-01-29T01:02:22.169Z,97.00
2023-01-29T01:04:48.994Z,97.80
2023-01-29T01:07:15.781Z,98.00
2023-01-29T01:10:01.338Z,97.90
2023-01-29T01:12:28.278Z,97.80
2023-01-29T01:14:55.011Z,97.80
2023-01-29T01:17:21.830Z,97.90
2023-01-29T01:19:48.962Z,98.40
2023-01-29T01:22:15.838Z,98.80
2023-01-29T01:24:42.751Z,98.80
2023-01-29T01:27:09.525Z,99.10
2023-01-29T01:29:36.873Z,99.40
2023-01-29T01:32:03.809Z,99.40
2023-01-29T01:34:30.615Z,99.00
2023-01-29T01:36:57.459Z,99.30
2023-01-29T01:39:24.919Z,99.10
2023-01-29T01:41:53.687Z,99.80
2023-01-29T01:44:51.177Z,99.70
2023-01-29T01:47:19.216Z,99.60
2023-01-29T01:49:46.024Z,99.70
2023-01-29T01:52:12.888Z,99.70
2023-01-29T01:54:39.658Z,99.90
2023-01-29T01:57:16.221Z,99.90
2023-01-29T01:59:48.080Z,99.90
2023-01-29T02:02:33.720Z,99.90
2023-01-29T02:05:19.125Z,99.40
2023-01-29T02:08:05.161Z,99.70
2023-01-29T02:10:52.220Z,99.90
2023-01-29T02:13:19.425Z,99.90
2023-01-29T02:15:48.786Z,99.90
2023-01-29T02:18:20.454Z,99.90
2023-01-29T02:21:00.760Z,99.90
2023-01-29T02:23:45.144Z,99.90
2023-01-29T02:26:37.945Z,99.90
2023-01-29T02:29:23.157Z,99.90
2023-01-29T02:32:03.893Z,99.90
2023-01-29T02:34:52.457Z,99.90
2023-01-29T02:37:19.216Z,99.90
2023-01-29T02:39:53.701Z,99.90
2023-01-29T02:42:35.887Z,99.90
2023-01-29T02:45:22.938Z,99.90
2023-01-29T02:48:00.220Z,99.90
2023-01-29T02:50:43.488Z,99.90
2023-01-29T02:53:14.976Z,99.90
2023-01-29T02:55:51.696Z,99.90
2023-01-29T02:58:41.004Z,99.80
2023-01-29T03:01:15.157Z,99.90
2023-01-29T03:03:43.503Z,99.90
2023-01-29T03:06:41.898Z,99.90
2023-01-29T03:09:14.760Z,99.90
2023-01-29T03:11:43.213Z,99.40
2023-01-29T03:14:16.913Z,99.40
2023-01-29T03:16:55.144Z,98.80
2023-01-29T03:19:31.975Z,99.10
2023-01-29T03:22:01.936Z,99.60
2023-01-29T03:25:05.157Z,99.80
2023-01-29T03:28:07.313Z,99.90
2023-01-29T03:30:54.207Z,99.60
2023-01-29T03:33:21.411Z,99.00
2023-01-29T03:36:00.910Z,99.50
2023-01-29T03:38:29.751Z,98.50
2023-01-29T03:40:59.910Z,98.70
2023-01-29T03:43:38.988Z,98.80
2023-01-29T03:46:18.954Z,98.80
2023-01-29T03:49:00.622Z,98.80
2023-01-29T03:51:31.624Z,99.40
2023-01-29T03:54:07.593Z,99.60
2023-01-29T03:56:57.537Z,99.90
2023-01-29T03:59:39.734Z,99.90
2023-01-29T04:02:09.265Z,99.60
2023-01-29T04:04:37.436Z,99.90
2023-01-29T04:07:15.230Z,99.90
2023-01-29T04:09:48.158Z,99.90
2023-01-29T04:12:16.099Z,99.90
2023-01-29T04:14:42.948Z,99.90
2023-01-29T04:17:16.046Z,99.90
2023-01-29T04:19:42.852Z,99.90
2023-01-29T04:22:15.810Z,99.90
2023-01-29T04:24:42.545Z,99.90
2023-01-29T04:27:20.690Z,99.90
2023-01-29T04:29:47.759Z,99.90
2023-01-29T04:32:24.610Z,99.90
2023-01-29T04:35:06.511Z,99.90
2023-01-29T04:37:45.109Z,99.90
2023-01-29T04:40:18.815Z,99.90
2023-01-29T04:42:55.145Z,99.90
2023-01-29T04:45:46.890Z,99.90
2023-01-29T04:48:26.473Z,99.90
2023-01-29T04:51:16.439Z,99.90
2023-01-29T04:54:03.342Z,99.90
2023-01-29T04:56:49.898Z,99.90
2023-01-29T04:59:20.877Z,99.90
2023-01-29T05:01:47.559Z,99.90
2023-01-29T05:04:16.297Z,99.90
2023-01-29T05:06:44.540Z,99.90
2023-01-29T05:09:11.871Z,99.90
2023-01-29T05:11:38.688Z,99.90
2023-01-29T05:14:06.836Z,99.90
2023-01-29T05:16:44.518Z,99.90
2023-01-29T05:19:15.141Z,99.90
2023-01-29T05:21:46.241Z,99.90
2023-01-29T05:24:26.024Z,99.90
2023-01-29T05:27:12.120Z,99.90
2023-01-29T05:29:45.067Z,99.90
2023-01-29T05:32:11.935Z,99.90
2023-01-29T05:34:38.692Z,99.90
2023-01-29T05:37:05.507Z,99.90
2023-01-29T05:39:32.416Z,99.90
2023-01-29T05:41:59.323Z,99.90
2023-01-29T05:44:26.239Z,99.90
2023-01-29T05:46:53.083Z,99.90
2023-01-29T05:49:20.684Z,99.90
2023-01-29T05:51:47.473Z,99.90
2023-01-29T05:54:14.391Z,99.90
2023-01-29T05:56:41.272Z,99.90
2023-01-29T05:59:08.042Z,99.90
2023-01-29T06:01:34.923Z,99.90
2023-01-29T06:04:01.847Z,99.90
2023-01-29T06:06:28.679Z,99.90
2023-01-29T06:08:56.066Z,99.90
2023-01-29T06:11:22.884Z,99.90
2023-01-29T06:13:49.652Z,99.90
2023-01-29T06:16:16.620Z,99.90
2023-01-29T06:18:43.620Z,99.90
2023-01-29T06:21:12.209Z,99.90
2023-01-29T06:23:39.090Z,99.90
2023-01-29T06:26:11.285Z,99.90
2023-01-29T06:28:38.521Z,99.90
2023-01-29T06:31:21.994Z,99.90
2023-01-29T06:33:52.632Z,99.90
2023-01-29T06:36:19.458Z,99.90
2023-01-29T06:38:47.249Z,99.90
2023-01-29T06:41:16.119Z,99.90
2023-01-29T06:43:44.554Z,99.90
2023-01-29T06:46:11.370Z,99.90
2023-01-29T06:48:38.121Z,99.90
2023-01-29T06:51:05.776Z,99.90
2023-01-29T06:53:33.726Z,99.90
2023-01-29T06:56:00.633Z,99.90
2023-01-29T06:58:27.490Z,99.90
2023-01-29T07:00:54.294Z,99.90
2023-01-29T07:03:21.212Z,99.90
2023-01-29T07:05:52.443Z,99.90
2023-01-29T07:08:22.641Z,99.90
2023-01-29T07:10:50.121Z,99.90
2023-01-29T07:13:16.989Z,99.90
2023-01-29T07:15:44.556Z,99.90
2023-01-29T07:18:14.151Z,99.90
2023-01-29T07:20:41.425Z,99.90
2023-01-29T07:23:11.018Z,99.90
2023-01-29T07:25:37.808Z,99.90
2023-01-29T07:28:04.721Z,99.90
2023-01-29T07:30:31.549Z,99.90
2023-01-29T07:33:16.725Z,99.90
2023-01-29T07:35:43.534Z,99.90
2023-01-29T07:38:10.820Z,99.10
2023-01-29T07:40:37.638Z,99.40
2023-01-29T07:43:06.523Z,99.90
2023-01-29T07:45:34.841Z,99.90
2023-01-29T07:48:01.726Z,98.90
2023-01-29T07:50:28.574Z,98.80
2023-01-29T07:52:55.498Z,99.60
2023-01-29T07:55:22.356Z,99.90
2023-01-29T07:57:54.940Z,99.90
2023-01-29T08:00:22.111Z,99.90
2023-01-29T08:02:48.862Z,99.30
2023-01-29T08:05:15.640Z,99.00
2023-01-29T08:07:42.464Z,98.20
2023-01-29T08:10:09.869Z,98.50
2023-01-29T08:12:36.585Z,98.10
2023-01-29T08:15:03.673Z,98.40
2023-01-29T08:17:30.475Z,98.10
2023-01-29T08:19:57.393Z,98.80
2023-01-29T08:22:24.151Z,98.00
2023-01-29T08:25:00.018Z,98.20
2023-01-29T08:27:27.161Z,98.00
2023-01-29T08:29:53.959Z,97.20
2023-01-29T08:32:20.816Z,97.00
2023-01-29T08:34:47.715Z,97.50
2023-01-29T08:37:14.510Z,97.70
2023-01-29T08:42:08.966Z,97.80
2023-01-29T08:44:35.980Z,98.30
2023-01-29T08:47:02.843Z,98.50
2023-01-29T08:49:29.675Z,98.40
2023-01-29T08:52:00.446Z,97.90
2023-01-29T08:54:28.535Z,97.20
2023-01-29T08:56:55.366Z,97.30
2023-01-29T08:59:22.975Z,97.30
2023-01-29T09:01:49.783Z,97.40
2023-01-29T09:04:16.497Z,98.00
2023-01-29T09:06:43.310Z,97.90
2023-01-29T09:09:11.887Z,97.80
2023-01-29T09:11:40.573Z,97.00
2023-01-29T09:14:07.423Z,96.70
2023-01-29T09:16:34.280Z,96.20
2023-01-29T09:19:01.110Z,96.00
2023-01-29T09:21:27.905Z,96.30
2023-01-29T09:23:54.725Z,96.10
2023-01-29T09:26:21.491Z,96.40
2023-01-29T09:28:48.285Z,96.20
2023-01-29T09:31:15.136Z,96.00
2023-01-29T09:33:42.021Z,95.90
2023-01-29T09:36:09.126Z,95.70
2023-01-29T09:38:35.918Z,96.00
2023-01-29T09:41:29.096Z,96.00
2023-01-29T09:44:03.569Z,96.00
2023-01-29T09:46:35.291Z,96.10
2023-01-29T09:49:07.280Z,96.10
2023-01-29T09:51:56.123Z,96.50
2023-01-29T09:54:29.101Z,96.00
2023-01-29T09:56:56.698Z,95.70
2023-01-29T09:59:24.972Z,95.30
2023-01-29T10:01:54.834Z,94.80
2023-01-29T10:04:59.768Z,95.50
2023-01-29T10:07:35.265Z,95.40
2023-01-29T10:10:04.652Z,94.60
2023-01-29T10:12:34.209Z,94.20
2023-01-29T10:15:19.299Z,94.30
2023-01-29T10:17:58.384Z,94.30
2023-01-29T10:20:50.205Z,94.50
2023-01-29T10:23:43.986Z,94.10
2023-01-29T10:26:11.475Z,93.50
2023-01-29T10:28:50.141Z,93.90
2023-01-29T10:31:34.315Z,93.80
2023-01-29T10:34:14.092Z,93.60
2023-01-29T10:36:46.148Z,93.50
2023-01-29T10:39:18.703Z,93.30
2023-01-29T10:42:07.330Z,93.30
2023-01-29T10:44:43.416Z,93.30
2023-01-29T10:47:32.433Z,93.10
2023-01-29T10:50:36.649Z,92.80
2023-01-29T10:53:27.494Z,92.50
2023-01-29T10:56:22.302Z,92.20
2023-01-29T10:59:17.595Z,92.30
2023-01-29T11:01:44.467Z,92.70
2023-01-29T11:04:11.272Z,92.70
2023-01-29T11:06:38.197Z,91.70
2023-01-29T11:09:34.580Z,91.80
2023-01-29T11:12:05.210Z,92.00
2023-01-29T11:14:45.471Z,92.00
2023-01-29T11:17:17.019Z,91.50
2023-01-29T11:19:46.112Z,91.60
2023-01-29T11:22:13.929Z,91.60
2023-01-29T11:24:40.832Z,91.50
2023-01-29T11:27:15.559Z,91.30
2023-01-29T11:29:45.825Z,90.60
2023-01-29T11:32:32.657Z,90.90
2023-01-29T11:35:06.052Z,90.80
2023-01-29T11:37:37.867Z,88.90
2023-01-29T11:40:40.034Z,89.00
2023-01-29T11:43:33.102Z,88.20
2023-01-29T11:46:01.257Z,87.30
2023-01-29T11:48:33.696Z,87.10
2023-01-29T11:51:00.851Z,87.50
2023-01-29T11:53:44.817Z,88.30
2023-01-29T11:56:23.761Z,87.70
2023-01-29T11:58:50.560Z,87.20
2023-01-29T12:01:18.525Z,87.30
2023-01-29T12:03:48.953Z,87.20
2023-01-29T12:06:28.518Z,86.40
2023-01-29T12:08:57.313Z,85.80
2023-01-29T12:11:34.275Z,86.30
2023-01-29T12:14:05.434Z,85.70
2023-01-29T12:16:58.728Z,85.00
2023-01-29T12:19:34.412Z,85.10
2023-01-29T12:22:34.274Z,85.60
2023-01-29T12:25:20.101Z,85.60
2023-01-29T12:27:50.116Z,84.30
2023-01-29T12:30:27.385Z,84.10
2023-01-29T12:33:05.070Z,83.90
2023-01-29T12:36:10.961Z,82.30
2023-01-29T12:38:37.843Z,82.00
2023-01-29T12:41:08.509Z,82.20
2023-01-29T12:43:41.390Z,83.10
2023-01-29T12:46:10.857Z,84.80
2023-01-29T12:48:39.565Z,85.00
2023-01-29T12:51:20.716Z,85.10
2023-01-29T12:54:18.313Z,84.70
2023-01-29T12:56:49.948Z,84.10
2023-01-29T12:59:33.501Z,85.80
2023-01-29T13:02:05.999Z,84.00
2023-01-29T13:04:37.115Z,84.30
2023-01-29T13:07:30.711Z,83.80
2023-01-29T13:10:07.679Z,84.50
2023-01-29T13:12:34.485Z,85.90
2023-01-29T13:15:09.347Z,86.60
2023-01-29T13:17:47.724Z,86.60
2023-01-29T13:20:18.658Z,84.90
2023-01-29T13:22:45.997Z,85.90
2023-01-29T13:25:17.313Z,84.30
2023-01-29T13:27:45.833Z,85.10
2023-01-29T13:30:30.417Z,85.70
2023-01-29T13:33:09.289Z,86.20
2023-01-29T13:35:43.352Z,86.90
2023-01-29T13:38:28.181Z,87.70
2023-01-29T13:41:01.078Z,86.90
2023-01-29T13:43:27.873Z,87.20
2023-01-29T13:45:54.686Z,87.40
2023-01-29T13:48:27.894Z,87.60
2023-01-29T13:51:00.661Z,87.70
2023-01-29T13:53:38.239Z,87.60
2023-01-29T13:56:32.966Z,87.70
2023-01-29T13:59:00.894Z,87.10
2023-01-29T14:01:48.911Z,87.10
2023-01-29T14:04:28.184Z,87.40
2023-01-29T14:06:55.950Z,87.20
2023-01-29T14:09:46.197Z,86.80
2023-01-29T14:12:21.969Z,86.60
2023-01-29T14:14:48.850Z,86.50
2023-01-29T14:17:16.425Z,86.60
2023-01-29T14:19:50.428Z,86.80
2023-01-29T14:22:23.248Z,87.70
2023-01-29T14:24:50.699Z,87.30
2023-01-29T14:27:21.942Z,87.00
2023-01-29T14:29:48.786Z,87.80
2023-01-29T14:32:19.675Z,88.60
2023-01-29T14:34:49.127Z,88.50
2023-01-29T14:37:19.768Z,87.90
2023-01-29T14:39:57.771Z,87.90
2023-01-29T14:42:32.209Z,88.20
2023-01-29T14:45:19.415Z,87.60
2023-01-29T14:47:49.338Z,87.90
2023-01-29T14:50:18.941Z,88.30
2023-01-29T14:52:46.972Z,88.30
2023-01-29T14:55:29.913Z,87.60
2023-01-29T14:57:58.065Z,86.90
2023-01-29T15:00:33.670Z,87.30
2023-01-29T15:03:02.181Z,86.90
2023-01-29T15:05:35.772Z,86.80
2023-01-29T15:08:18.150Z,86.70
2023-01-29T15:11:13.458Z,87.10
2023-01-29T15:13:52.161Z,86.80
2023-01-29T15:16:49.330Z,87.50
2023-01-29T15:19:23.781Z,88.00
2023-01-29T15:22:08.747Z,88.10
2023-01-29T15:24:36.853Z,88.60
2023-01-29T15:27:03.657Z,89.30
2023-01-29T15:29:31.010Z,90.10
2023-01-29T15:31:58.218Z,90.40
2023-01-29T15:34:25.104Z,90.80
2023-01-29T15:36:52.436Z,91.20
2023-01-29T15:39:22.642Z,91.20
2023-01-29T15:41:51.721Z,91.30
2023-01-29T15:44:22.740Z,91.20
2023-01-29T15:46:59.904Z,91.40
2023-01-29T15:49:31.932Z,91.60
2023-01-29T15:51:59.662Z,91.90
2023-01-29T15:54:26.710Z,92.50
2023-01-29T15:56:53.558Z,92.80
2023-01-29T15:59:23.171Z,93.30
2023-01-29T16:01:50.123Z,93.60
2023-01-29T16:04:26.936Z,93.90
2023-01-29T16:06:54.006Z,94.30
2023-01-29T16:09:23.648Z,94.80
2023-01-29T16:11:50.718Z,95.40
2023-01-29T16:14:20.564Z,95.70
2023-01-29T16:16:48.577Z,96.20
2023-01-29T16:19:28.507Z,97.00
2023-01-29T16:22:03.371Z,97.50
2023-01-29T16:24:31.170Z,97.80
2023-01-29T16:27:09.446Z,98.00
2023-01-29T16:29:36.268Z,98.40
2023-01-29T16:32:03.448Z,99.20
2023-01-29T16:34:43.558Z,99.70
2023-01-29T16:37:36.815Z,99.90
2023-01-29T16:40:34.040Z,99.90
2023-01-29T16:43:37.476Z,99.90
2023-01-29T16:46:26.133Z,99.90
2023-01-29T16:48:53.171Z,99.90
2023-01-29T16:51:26.040Z,99.90
2023-01-29T16:53:55.391Z,99.90
2023-01-29T16:56:23.602Z,99.90
2023-01-29T16:58:51.498Z,99.90
2023-01-29T17:01:18.310Z,99.90
2023-01-29T17:03:45.142Z,99.90
2023-01-29T17:06:12.840Z,99.90
2023-01-29T17:08:41.774Z,99.90
2023-01-29T17:11:09.622Z,99.90
2023-01-29T17:13:37.368Z,99.90
2023-01-29T17:16:22.597Z,99.90
2023-01-29T17:18:49.476Z,99.90
2023-01-29T17:21:16.246Z,99.90
2023-01-29T17:23:43.083Z,99.90
2023-01-29T17:26:13.753Z,99.90
2023-01-29T17:28:43.471Z,99.90
2023-01-29T17:31:10.436Z,99.90
2023-01-29T17:33:39.863Z,99.90
2023-01-29T17:36:09.517Z,99.90
2023-01-29T17:38:36.336Z,99.90
2023-01-29T17:41:18.471Z,99.90
2023-01-29T17:43:45.764Z,99.90
2023-01-29T17:46:14.688Z,99.90
2023-01-29T17:48:41.541Z,99.90
2023-01-29T17:51:13.717Z,99.90
2023-01-29T17:53:46.276Z,99.90
2023-01-29T17:56:39.731Z,99.90
2023-01-29T17:59:15.592Z,99.90
2023-01-29T18:01:42.967Z,99.90
2023-01-29T18:04:10.298Z,99.90
2023-01-29T18:06:37.278Z,99.90
2023-01-29T18:09:04.299Z,99.90
2023-01-29T18:11:31.186Z,99.90
2023-01-29T18:13:58.364Z,99.90
2023-01-29T18:16:28.880Z,99.90
2023-01-29T18:18:55.707Z,99.90
2023-01-29T18:21:22.674Z,99.90
2023-01-29T18:23:49.848Z,99.90
2023-01-29T18:26:17.000Z,99.90
2023-01-29T18:28:44.015Z,99.90
2023-01-29T18:31:13.034Z,99.90
2023-01-29T18:33:40.681Z,99.90
2023-01-29T18:36:08.197Z,99.90
2023-01-29T18:38:35.028Z,99.90
2023-01-29T18:41:10.733Z,99.90
2023-01-29T18:43:38.488Z,99.50
2023-01-29T18:46:06.404Z,99.30
2023-01-29T18:48:34.836Z,99.10
2023-01-29T18:51:01.630Z,98.80
2023-01-29T18:53:28.456Z,98.60
2023-01-29T18:55:58.931Z,98.30
2023-01-29T18:58:31.053Z,98.10
2023-01-29T19:01:02.179Z,97.80
2023-01-29T19:03:29.102Z,97.50
2023-01-29T19:06:00.892Z,97.40
2023-01-29T19:08:27.867Z,97.20
2023-01-29T19:10:54.689Z,96.90
2023-01-29T19:13:21.444Z,97.00
2023-01-29T19:15:49.097Z,96.80
2023-01-29T19:18:16.435Z,96.60
2023-01-29T19:20:43.384Z,96.40
2023-01-29T19:23:10.275Z,96.50
2023-01-29T19:25:38.826Z,96.50
2023-01-29T19:28:06.601Z,96.50
2023-01-29T19:30:33.616Z,96.30
2023-01-29T19:33:00.373Z,96.20
2023-01-29T19:35:27.278Z,95.90
2023-01-29T19:37:54.561Z,96.10
2023-01-29T19:40:21.730Z,95.90
2023-01-29T19:42:48.772Z,95.10
2023-01-29T19:45:15.902Z,95.50
2023-01-29T19:47:43.319Z,96.30
2023-01-29T19:50:10.840Z,96.90
2023-01-29T19:52:53.032Z,97.50
2023-01-29T19:55:21.099Z,96.80
2023-01-29T19:57:48.149Z,95.90
2023-01-29T20:00:15.558Z,96.30
2023-01-29T20:02:42.390Z,96.60
2023-01-29T20:05:12.002Z,96.00
2023-01-29T20:07:40.007Z,95.20
2023-01-29T20:10:11.596Z,94.10
2023-01-29T20:12:38.617Z,93.60
2023-01-29T20:15:07.316Z,93.90
2023-01-29T20:17:34.172Z,93.80
2023-01-29T20:20:01.085Z,93.40
2023-01-29T20:22:29.399Z,93.20
2023-01-29T20:24:56.314Z,92.90
2023-01-29T20:27:23.072Z,91.90
2023-01-29T20:29:52.401Z,92.30
2023-01-29T20:32:19.223Z,91.90
2023-01-29T20:34:49.675Z,91.60
2023-01-29T20:37:16.454Z,91.30
2023-01-29T20:39:43.244Z,91.80
2023-01-29T20:42:10.010Z,92.00
2023-01-29T20:44:36.807Z,91.60
2023-01-29T20:47:04.130Z,91.80
2023-01-29T20:49:31.546Z,91.90
2023-01-29T20:51:58.326Z,91.90
2023-01-29T20:54:25.332Z,92.00
2023-01-29T20:56:52.374Z,91.10
2023-01-29T20:59:19.941Z,90.40
2023-01-29T21:01:49.248Z,90.60
2023-01-29T21:04:16.019Z,90.40
2023-01-29T21:06:42.772Z,90.40
2023-01-29T21:09:09.626Z,90.30
2023-01-29T21:11:36.498Z,90.40
2023-01-29T21:14:03.277Z,90.70
2023-01-29T21:16:30.171Z,90.50
2023-01-29T21:18:57.711Z,90.90
2023-01-29T21:21:26.477Z,91.70
2023-01-29T21:23:53.386Z,92.10
2023-01-29T21:26:20.228Z,91.80
2023-01-29T21:28:47.002Z,91.80
2023-01-29T21:31:17.723Z,91.40
2023-01-29T21:33:44.721Z,89.80
2023-01-29T21:36:11.623Z,90.20
2023-01-29T21:38:38.911Z,90.60
2023-01-29T21:41:08.733Z,90.90
2023-01-29T21:43:35.881Z,91.40
2023-01-29T21:46:11.749Z,91.40
2023-01-29T21:48:39.379Z,91.70
2023-01-29T21:51:06.508Z,91.50
2023-01-29T21:53:33.644Z,92.10
2023-01-29T21:56:04.316Z,91.90
2023-01-29T21:58:31.461Z,92.10
2023-01-29T22:01:35.161Z,91.80
2023-01-29T22:03:47.237Z,91.00
2023-01-29T22:06:14.724Z,91.10
2023-01-29T22:08:41.548Z,90.90
2023-01-29T22:11:08.532Z,90.20
2023-01-29T22:13:35.453Z,91.30
2023-01-29T22:16:02.254Z,91.50
2023-01-29T22:18:29.037Z,91.50
2023-01-29T22:20:56.361Z,91.60
2023-01-29T22:23:26.168Z,91.20
2023-01-29T22:25:52.982Z,91.30
2023-01-29T22:28:19.753Z,91.80
2023-01-29T22:30:46.748Z,91.10
2023-01-29T22:33:13.492Z,90.80
2023-01-29T22:35:40.269Z,90.90
2023-01-29T22:38:07.389Z,91.00
2023-01-29T22:40:34.161Z,91.00
2023-01-29T22:43:00.980Z,90.80
2023-01-29T22:45:27.764Z,91.00
2023-01-29T22:47:54.513Z,90.70
2023-01-29T22:50:21.324Z,90.80
2023-01-29T22:52:53.567Z,90.70
2023-01-29T22:55:20.792Z,90.40
2023-01-29T22:57:49.682Z,90.70
2023-01-29T23:00:17.386Z,90.90
2023-01-29T23:02:46.139Z,90.90
2023-01-29T23:05:12.952Z,90.50
2023-01-29T23:07:39.763Z,90.60
2023-01-29T23:10:07.271Z,91.20
2023-01-29T23:12:34.112Z,91.50
2023-01-29T23:15:00.973Z,90.90
2023-01-29T23:17:27.708Z,90.90
2023-01-29T23:19:54.445Z,90.50
2023-01-29T23:22:21.248Z,90.30
2023-01-29T23:24:48.025Z,90.30
2023-01-29T23:27:14.871Z,90.10
2023-01-29T23:29:42.303Z,90.50
2023-01-29T23:32:09.314Z,90.30
2023-01-29T23:34:36.119Z,90.00
2023-01-29T23:37:02.927Z,90.20
2023-01-29T23:39:29.699Z,88.80
2023-01-29T23:41:56.496Z,88.70
2023-01-29T23:44:23.353Z,87.70
2023-01-29T23:46:50.183Z,86.30
2023-01-29T23:49:17.135Z,87.70
2023-01-29T23:51:44.528Z,89.90
2023-01-29T23:54:11.413Z,90.60
2023-01-29T23:56:38.201Z,91.20
2023-01-29T23:59:04.951Z,91.70
